sensor_id;sensor_type;location;lat;lon;timestamp;temperature;humidity
71039;SHT30;58692;43.212;27.908;2023-06-14T00:00:17;19.54;74.88
71039;SHT30;58692;43.212;27.908;2023-06-14T00:02:43;19.41;75.41
71039;SHT30;58692;43.212;27.908;2023-06-14T00:05:08;19.43;75.30
71039;SHT30;58692;43.212;27.908;2023-06-14T00:07:36;19.43;75.43
71039;SHT30;58692;43.212;27.908;2023-06-14T00:10:03;19.51;75.28
71039;SHT30;58692;43.212;27.908;2023-06-14T00:12:29;19.51;75.30
71039;SHT30;58692;43.212;27.908;2023-06-14T00:14:55;19.43;75.37
71039;SHT30;58692;43.212;27.908;2023-06-14T00:17:20;19.48;75.35
71039;SHT30;58692;43.212;27.908;2023-06-14T00:19:46;19.47;75.16
71039;SHT30;58692;43.212;27.908;2023-06-14T00:22:12;19.31;75.39
71039;SHT30;58692;43.212;27.908;2023-06-14T00:24:37;19.48;75.10
71039;SHT30;58692;43.212;27.908;2023-06-14T00:27:03;19.41;75.25
71039;SHT30;58692;43.212;27.908;2023-06-14T00:29:29;19.44;75.22
71039;SHT30;58692;43.212;27.908;2023-06-14T00:31:55;19.41;75.30
71039;SHT30;58692;43.212;27.908;2023-06-14T00:34:20;19.50;75.06
71039;SHT30;58692;43.212;27.908;2023-06-14T00:36:46;19.43;75.59
71039;SHT30;58692;43.212;27.908;2023-06-14T00:39:11;19.17;76.58
71039;SHT30;58692;43.212;27.908;2023-06-14T00:41:37;19.23;76.46
71039;SHT30;58692;43.212;27.908;2023-06-14T00:44:03;19.28;76.11
71039;SHT30;58692;43.212;27.908;2023-06-14T00:46:28;19.18;76.46
71039;SHT30;58692;43.212;27.908;2023-06-14T00:48:55;19.11;77.04
71039;SHT30;58692;43.212;27.908;2023-06-14T00:51:21;19.14;76.82
71039;SHT30;58692;43.212;27.908;2023-06-14T00:53:47;19.31;76.28
71039;SHT30;58692;43.212;27.908;2023-06-14T00:56:14;19.06;76.76
71039;SHT30;58692;43.212;27.908;2023-06-14T00:58:41;19.17;76.41
71039;SHT30;58692;43.212;27.908;2023-06-14T01:01:06;19.20;76.36
71039;SHT30;58692;43.212;27.908;2023-06-14T01:03:32;19.28;76.21
71039;SHT30;58692;43.212;27.908;2023-06-14T01:06:08;19.34;76.22
71039;SHT30;58692;43.212;27.908;2023-06-14T01:08:47;19.34;76.22
71039;SHT30;58692;43.212;27.908;2023-06-14T01:11:26;19.35;75.84
71039;SHT30;58692;43.212;27.908;2023-06-14T01:13:54;19.39;75.94
71039;SHT30;58692;43.212;27.908;2023-06-14T01:16:21;19.28;75.96
71039;SHT30;58692;43.212;27.908;2023-06-14T01:18:47;19.13;76.31
71039;SHT30;58692;43.212;27.908;2023-06-14T01:21:23;19.14;76.75
71039;SHT30;58692;43.212;27.908;2023-06-14T01:23:49;19.24;77.23
71039;SHT30;58692;43.212;27.908;2023-06-14T01:26:19;19.17;77.96
71039;SHT30;58692;43.212;27.908;2023-06-14T01:28:45;19.07;78.82
71039;SHT30;58692;43.212;27.908;2023-06-14T01:31:19;19.10;78.62
71039;SHT30;58692;43.212;27.908;2023-06-14T01:33:48;19.10;78.45
71039;SHT30;58692;43.212;27.908;2023-06-14T01:36:17;19.07;78.18
71039;SHT30;58692;43.212;27.908;2023-06-14T01:38:44;18.99;78.52
71039;SHT30;58692;43.212;27.908;2023-06-14T01:41:11;18.83;78.98
71039;SHT30;58692;43.212;27.908;2023-06-14T01:43:38;18.80;79.10
71039;SHT30;58692;43.212;27.908;2023-06-14T01:46:04;18.67;79.15
71039;SHT30;58692;43.212;27.908;2023-06-14T01:48:31;18.72;79.10
71039;SHT30;58692;43.212;27.908;2023-06-14T01:50:57;18.87;78.66
71039;SHT30;58692;43.212;27.908;2023-06-14T01:53:22;18.94;78.24
71039;SHT30;58692;43.212;27.908;2023-06-14T01:55:47;18.80;78.19
71039;SHT30;58692;43.212;27.908;2023-06-14T01:58:14;18.67;78.55
71039;SHT30;58692;43.212;27.908;2023-06-14T02:00:41;18.69;78.61
71039;SHT30;58692;43.212;27.908;2023-06-14T02:03:08;18.72;78.51
71039;SHT30;58692;43.212;27.908;2023-06-14T02:05:34;18.62;79.32
71039;SHT30;58692;43.212;27.908;2023-06-14T02:08:00;18.66;79.52
71039;SHT30;58692;43.212;27.908;2023-06-14T02:10:26;18.59;80.01
71039;SHT30;58692;43.212;27.908;2023-06-14T02:12:51;18.72;79.96
71039;SHT30;58692;43.212;27.908;2023-06-14T02:15:17;18.76;79.94
71039;SHT30;58692;43.212;27.908;2023-06-14T02:17:44;18.74;80.05
71039;SHT30;58692;43.212;27.908;2023-06-14T02:20:10;18.69;79.79
71039;SHT30;58692;43.212;27.908;2023-06-14T02:22:36;18.65;79.44
71039;SHT30;58692;43.212;27.908;2023-06-14T02:25:01;18.35;80.27
71039;SHT30;58692;43.212;27.908;2023-06-14T02:27:27;18.25;80.56
71039;SHT30;58692;43.212;27.908;2023-06-14T02:29:52;18.19;80.68
71039;SHT30;58692;43.212;27.908;2023-06-14T02:32:18;18.24;80.73
71039;SHT30;58692;43.212;27.908;2023-06-14T02:34:43;18.22;80.69
71039;SHT30;58692;43.212;27.908;2023-06-14T02:37:09;18.36;80.54
71039;SHT30;58692;43.212;27.908;2023-06-14T02:39:34;18.31;81.04
71039;SHT30;58692;43.212;27.908;2023-06-14T02:42:00;18.36;81.35
71039;SHT30;58692;43.212;27.908;2023-06-14T02:44:26;18.35;81.31
71039;SHT30;58692;43.212;27.908;2023-06-14T02:46:54;18.43;81.16
71039;SHT30;58692;43.212;27.908;2023-06-14T02:49:21;18.48;81.09
71039;SHT30;58692;43.212;27.908;2023-06-14T02:51:47;18.49;80.71
71039;SHT30;58692;43.212;27.908;2023-06-14T02:54:12;18.53;80.70
71039;SHT30;58692;43.212;27.908;2023-06-14T02:56:38;18.65;80.37
71039;SHT30;58692;43.212;27.908;2023-06-14T02:59:04;18.46;79.91
71039;SHT30;58692;43.212;27.908;2023-06-14T03:01:29;18.56;79.47
71039;SHT30;58692;43.212;27.908;2023-06-14T03:04:03;18.60;78.95
71039;SHT30;58692;43.212;27.908;2023-06-14T03:06:29;18.67;78.63
71039;SHT30;58692;43.212;27.908;2023-06-14T03:08:57;18.77;78.34
71039;SHT30;58692;43.212;27.908;2023-06-14T03:11:25;18.87;77.93
71039;SHT30;58692;43.212;27.908;2023-06-14T03:13:52;18.86;77.86
71039;SHT30;58692;43.212;27.908;2023-06-14T03:16:18;18.72;78.41
71039;SHT30;58692;43.212;27.908;2023-06-14T03:18:48;18.96;77.74
71039;SHT30;58692;43.212;27.908;2023-06-14T03:21:13;19.06;77.27
71039;SHT30;58692;43.212;27.908;2023-06-14T03:23:41;19.20;77.03
71039;SHT30;58692;43.212;27.908;2023-06-14T03:26:06;19.26;76.58
71039;SHT30;58692;43.212;27.908;2023-06-14T03:28:32;19.23;76.32
71039;SHT30;58692;43.212;27.908;2023-06-14T03:30:57;19.44;76.09
71039;SHT30;58692;43.212;27.908;2023-06-14T03:33:23;19.54;75.65
71039;SHT30;58692;43.212;27.908;2023-06-14T03:35:50;19.54;75.36
71039;SHT30;58692;43.212;27.908;2023-06-14T03:38:17;19.65;75.26
71039;SHT30;58692;43.212;27.908;2023-06-14T03:40:42;19.86;74.64
71039;SHT30;58692;43.212;27.908;2023-06-14T03:43:08;20.20;73.56
71039;SHT30;58692;43.212;27.908;2023-06-14T03:45:33;20.36;72.82
71039;SHT30;58692;43.212;27.908;2023-06-14T03:47:59;20.67;72.55
71039;SHT30;58692;43.212;27.908;2023-06-14T03:50:26;21.12;71.42
71039;SHT30;58692;43.212;27.908;2023-06-14T03:52:52;20.93;72.02
71039;SHT30;58692;43.212;27.908;2023-06-14T03:55:18;21.12;71.41
71039;SHT30;58692;43.212;27.908;2023-06-14T03:57:44;20.56;73.08
71039;SHT30;58692;43.212;27.908;2023-06-14T04:00:10;20.79;73.13
71039;SHT30;58692;43.212;27.908;2023-06-14T04:02:37;21.03;72.31
71039;SHT30;58692;43.212;27.908;2023-06-14T04:05:03;20.97;72.38
71039;SHT30;58692;43.212;27.908;2023-06-14T04:07:28;21.08;72.01
71039;SHT30;58692;43.212;27.908;2023-06-14T04:09:55;21.35;71.20
71039;SHT30;58692;43.212;27.908;2023-06-14T04:12:20;21.37;71.07
71039;SHT30;58692;43.212;27.908;2023-06-14T04:14:46;21.61;71.07
71039;SHT30;58692;43.212;27.908;2023-06-14T04:17:12;21.58;71.20
71039;SHT30;58692;43.212;27.908;2023-06-14T04:19:37;21.65;71.29
71039;SHT30;58692;43.212;27.908;2023-06-14T04:22:06;21.63;71.24
71039;SHT30;58692;43.212;27.908;2023-06-14T04:24:31;21.76;71.17
71039;SHT30;58692;43.212;27.908;2023-06-14T04:26:59;21.42;72.05
71039;SHT30;58692;43.212;27.908;2023-06-14T04:29:26;21.66;71.58
71039;SHT30;58692;43.212;27.908;2023-06-14T04:31:54;21.86;70.65
71039;SHT30;58692;43.212;27.908;2023-06-14T04:34:25;22.09;70.06
71039;SHT30;58692;43.212;27.908;2023-06-14T04:36:55;22.18;69.13
71039;SHT30;58692;43.212;27.908;2023-06-14T04:39:22;22.57;68.41
71039;SHT30;58692;43.212;27.908;2023-06-14T04:41:48;22.68;67.47
71039;SHT30;58692;43.212;27.908;2023-06-14T04:44:18;22.77;67.05
71039;SHT30;58692;43.212;27.908;2023-06-14T04:46:45;22.75;67.30
71039;SHT30;58692;43.212;27.908;2023-06-14T04:49:15;22.71;67.37
71039;SHT30;58692;43.212;27.908;2023-06-14T04:51:41;22.97;67.26
71039;SHT30;58692;43.212;27.908;2023-06-14T04:54:11;23.08;66.94
71039;SHT30;58692;43.212;27.908;2023-06-14T04:56:40;23.15;67.02
71039;SHT30;58692;43.212;27.908;2023-06-14T04:59:05;23.31;66.52
71039;SHT30;58692;43.212;27.908;2023-06-14T05:01:31;23.16;66.98
71039;SHT30;58692;43.212;27.908;2023-06-14T05:03:58;23.50;65.82
71039;SHT30;58692;43.212;27.908;2023-06-14T05:06:23;23.25;66.32
71039;SHT30;58692;43.212;27.908;2023-06-14T05:08:49;23.26;66.58
71039;SHT30;58692;43.212;27.908;2023-06-14T05:11:18;23.70;65.60
71039;SHT30;58692;43.212;27.908;2023-06-14T05:13:50;24.21;64.06
71039;SHT30;58692;43.212;27.908;2023-06-14T05:16:20;24.14;64.34
71039;SHT30;58692;43.212;27.908;2023-06-14T05:18:48;24.47;63.54
71039;SHT30;58692;43.212;27.908;2023-06-14T05:21:19;25.05;62.26
71039;SHT30;58692;43.212;27.908;2023-06-14T05:23:45;25.43;61.59
71039;SHT30;58692;43.212;27.908;2023-06-14T05:26:11;25.70;60.64
71039;SHT30;58692;43.212;27.908;2023-06-14T05:28:36;25.81;59.69
71039;SHT30;58692;43.212;27.908;2023-06-14T05:31:02;25.88;59.39
71039;SHT30;58692;43.212;27.908;2023-06-14T05:33:28;25.60;60.37
71039;SHT30;58692;43.212;27.908;2023-06-14T05:35:54;25.08;61.56
71039;SHT30;58692;43.212;27.908;2023-06-14T05:38:20;25.71;60.40
71039;SHT30;58692;43.212;27.908;2023-06-14T05:40:52;25.60;60.48
71039;SHT30;58692;43.212;27.908;2023-06-14T05:43:18;24.98;62.04
71039;SHT30;58692;43.212;27.908;2023-06-14T05:45:46;25.15;61.50
71039;SHT30;58692;43.212;27.908;2023-06-14T05:48:12;25.66;60.66
71039;SHT30;58692;43.212;27.908;2023-06-14T05:50:38;25.87;60.05
71039;SHT30;58692;43.212;27.908;2023-06-14T05:53:03;26.07;59.97
71039;SHT30;58692;43.212;27.908;2023-06-14T05:55:29;26.30;58.99
71039;SHT30;58692;43.212;27.908;2023-06-14T05:57:55;25.63;60.26
71039;SHT30;58692;43.212;27.908;2023-06-14T06:00:21;26.48;58.46
71039;SHT30;58692;43.212;27.908;2023-06-14T06:02:50;26.47;58.54
71039;SHT30;58692;43.212;27.908;2023-06-14T06:05:16;26.53;58.63
71039;SHT30;58692;43.212;27.908;2023-06-14T06:07:42;26.73;58.44
71039;SHT30;58692;43.212;27.908;2023-06-14T06:10:16;26.96;57.79
71039;SHT30;58692;43.212;27.908;2023-06-14T06:12:45;27.17;57.39
71039;SHT30;58692;43.212;27.908;2023-06-14T06:15:12;27.74;56.06
71039;SHT30;58692;43.212;27.908;2023-06-14T06:17:38;28.11;54.94
71039;SHT30;58692;43.212;27.908;2023-06-14T06:20:05;28.42;54.60
71039;SHT30;58692;43.212;27.908;2023-06-14T06:22:34;28.35;54.68
71039;SHT30;58692;43.212;27.908;2023-06-14T06:25:00;28.32;54.66
71039;SHT30;58692;43.212;27.908;2023-06-14T06:27:25;27.93;55.66
71039;SHT30;58692;43.212;27.908;2023-06-14T06:29:54;27.33;56.94
71039;SHT30;58692;43.212;27.908;2023-06-14T06:32:23;26.98;57.23
71039;SHT30;58692;43.212;27.908;2023-06-14T06:34:49;26.96;57.58
71039;SHT30;58692;43.212;27.908;2023-06-14T06:37:14;26.99;57.64
71039;SHT30;58692;43.212;27.908;2023-06-14T06:39:40;27.17;56.67
71039;SHT30;58692;43.212;27.908;2023-06-14T06:42:06;26.55;58.48
71039;SHT30;58692;43.212;27.908;2023-06-14T06:44:32;26.53;58.62
71039;SHT30;58692;43.212;27.908;2023-06-14T06:46:58;25.88;60.68
71039;SHT30;58692;43.212;27.908;2023-06-14T06:49:23;25.59;60.99
71039;SHT30;58692;43.212;27.908;2023-06-14T06:52:05;27.16;57.33
71039;SHT30;58692;43.212;27.908;2023-06-14T06:54:32;27.57;56.21
71039;SHT30;58692;43.212;27.908;2023-06-14T06:57:18;28.01;55.42
71039;SHT30;58692;43.212;27.908;2023-06-14T06:59:43;28.00;54.60
71039;SHT30;58692;43.212;27.908;2023-06-14T07:02:09;28.89;50.60
71039;SHT30;58692;43.212;27.908;2023-06-14T07:04:40;28.59;51.92
71039;SHT30;58692;43.212;27.908;2023-06-14T07:07:06;29.11;49.88
71039;SHT30;58692;43.212;27.908;2023-06-14T07:09:32;27.95;51.84
71039;SHT30;58692;43.212;27.908;2023-06-14T07:12:03;27.54;52.53
71039;SHT30;58692;43.212;27.908;2023-06-14T07:14:30;26.92;54.07
71039;SHT30;58692;43.212;27.908;2023-06-14T07:17:14;26.71;54.91
71039;SHT30;58692;43.212;27.908;2023-06-14T07:19:40;26.47;55.42
71039;SHT30;58692;43.212;27.908;2023-06-14T07:22:08;26.35;54.77
71039;SHT30;58692;43.212;27.908;2023-06-14T07:24:34;27.19;53.49
71039;SHT30;58692;43.212;27.908;2023-06-14T07:27:01;28.82;49.87
71039;SHT30;58692;43.212;27.908;2023-06-14T07:29:28;28.00;51.07
71039;SHT30;58692;43.212;27.908;2023-06-14T07:31:54;27.23;52.46
71039;SHT30;58692;43.212;27.908;2023-06-14T07:34:19;26.95;53.27
71039;SHT30;58692;43.212;27.908;2023-06-14T07:36:45;28.68;49.30
71039;SHT30;58692;43.212;27.908;2023-06-14T07:39:11;28.95;48.06
71039;SHT30;58692;43.212;27.908;2023-06-14T07:41:40;29.23;46.93
71039;SHT30;58692;43.212;27.908;2023-06-14T07:44:06;30.01;45.75
71039;SHT30;58692;43.212;27.908;2023-06-14T07:46:31;30.47;44.84
71039;SHT30;58692;43.212;27.908;2023-06-14T07:48:57;29.47;47.13
71039;SHT30;58692;43.212;27.908;2023-06-14T07:51:22;30.87;44.63
71039;SHT30;58692;43.212;27.908;2023-06-14T07:53:51;31.65;42.76
71039;SHT30;58692;43.212;27.908;2023-06-14T07:56:16;31.03;43.67
71039;SHT30;58692;43.212;27.908;2023-06-14T07:58:42;30.51;45.03
71039;SHT30;58692;43.212;27.908;2023-06-14T08:01:08;29.62;46.95
71039;SHT30;58692;43.212;27.908;2023-06-14T08:03:37;29.24;47.61
71039;SHT30;58692;43.212;27.908;2023-06-14T08:06:03;30.64;45.34
71039;SHT30;58692;43.212;27.908;2023-06-14T08:08:29;31.75;43.27
71039;SHT30;58692;43.212;27.908;2023-06-14T08:10:55;32.12;42.48
71039;SHT30;58692;43.212;27.908;2023-06-14T08:13:21;32.83;41.67
71039;SHT30;58692;43.212;27.908;2023-06-14T08:15:47;31.75;42.55
71039;SHT30;58692;43.212;27.908;2023-06-14T08:18:13;30.96;44.34
71039;SHT30;58692;43.212;27.908;2023-06-14T08:20:38;30.25;45.87
71039;SHT30;58692;43.212;27.908;2023-06-14T08:23:05;31.62;43.13
71039;SHT30;58692;43.212;27.908;2023-06-14T08:25:30;31.75;43.81
71039;SHT30;58692;43.212;27.908;2023-06-14T08:27:56;31.65;43.87
71039;SHT30;58692;43.212;27.908;2023-06-14T08:30:22;30.52;45.61
71039;SHT30;58692;43.212;27.908;2023-06-14T08:32:48;30.16;46.56
71039;SHT30;58692;43.212;27.908;2023-06-14T08:35:16;31.28;44.25
71039;SHT30;58692;43.212;27.908;2023-06-14T08:37:44;31.96;43.41
71039;SHT30;58692;43.212;27.908;2023-06-14T08:40:33;30.37;45.82
71039;SHT30;58692;43.212;27.908;2023-06-14T08:43:03;30.87;45.48
71039;SHT30;58692;43.212;27.908;2023-06-14T08:45:29;29.80;47.32
71039;SHT30;58692;43.212;27.908;2023-06-14T08:47:55;29.38;47.76
71039;SHT30;58692;43.212;27.908;2023-06-14T08:50:28;29.21;48.30
71039;SHT30;58692;43.212;27.908;2023-06-14T08:52:58;29.14;48.32
71039;SHT30;58692;43.212;27.908;2023-06-14T08:55:36;29.27;48.12
71039;SHT30;58692;43.212;27.908;2023-06-14T08:58:05;29.67;47.03
71039;SHT30;58692;43.212;27.908;2023-06-14T09:00:31;29.31;48.01
71039;SHT30;58692;43.212;27.908;2023-06-14T09:02:59;28.96;49.02
71039;SHT30;58692;43.212;27.908;2023-06-14T09:05:26;28.70;50.01
71039;SHT30;58692;43.212;27.908;2023-06-14T09:07:52;28.65;50.02
71039;SHT30;58692;43.212;27.908;2023-06-14T09:10:20;28.59;49.75
71039;SHT30;58692;43.212;27.908;2023-06-14T09:12:46;29.27;48.23
71039;SHT30;58692;43.212;27.908;2023-06-14T09:15:12;28.86;48.86
71039;SHT30;58692;43.212;27.908;2023-06-14T09:17:39;27.77;54.32
71039;SHT30;58692;43.212;27.908;2023-06-14T09:20:07;26.98;56.30
71039;SHT30;58692;43.212;27.908;2023-06-14T09:22:36;26.88;56.85
71039;SHT30;58692;43.212;27.908;2023-06-14T09:25:05;26.69;57.18
71039;SHT30;58692;43.212;27.908;2023-06-14T09:27:32;26.21;58.88
71039;SHT30;58692;43.212;27.908;2023-06-14T09:29:58;26.34;57.29
71039;SHT30;58692;43.212;27.908;2023-06-14T09:32:23;26.14;58.47
71039;SHT30;58692;43.212;27.908;2023-06-14T09:34:50;26.13;59.32
71039;SHT30;58692;43.212;27.908;2023-06-14T09:37:31;27.54;56.74
71039;SHT30;58692;43.212;27.908;2023-06-14T09:39:58;26.58;57.53
71039;SHT30;58692;43.212;27.908;2023-06-14T09:42:25;26.47;58.76
71039;SHT30;58692;43.212;27.908;2023-06-14T09:44:53;28.08;55.37
71039;SHT30;58692;43.212;27.908;2023-06-14T09:47:19;29.43;51.71
71039;SHT30;58692;43.212;27.908;2023-06-14T09:49:46;29.55;50.74
71039;SHT30;58692;43.212;27.908;2023-06-14T09:52:17;29.20;52.18
71039;SHT30;58692;43.212;27.908;2023-06-14T09:54:46;28.69;52.67
71039;SHT30;58692;43.212;27.908;2023-06-14T09:57:16;27.93;54.84
71039;SHT30;58692;43.212;27.908;2023-06-14T09:59:43;27.42;55.69
71039;SHT30;58692;43.212;27.908;2023-06-14T10:04:47;27.29;56.06
71039;SHT30;58692;43.212;27.908;2023-06-14T10:07:19;29.04;52.15
71039;SHT30;58692;43.212;27.908;2023-06-14T10:09:46;27.94;54.27
71039;SHT30;58692;43.212;27.908;2023-06-14T10:12:17;27.19;56.18
71039;SHT30;58692;43.212;27.908;2023-06-14T10:14:49;26.71;56.79
71039;SHT30;58692;43.212;27.908;2023-06-14T10:20:39;28.79;52.58
71039;SHT30;58692;43.212;27.908;2023-06-14T10:23:02;29.57;50.52
71039;SHT30;58692;43.212;27.908;2023-06-14T10:25:30;30.23;49.68
71039;SHT30;58692;43.212;27.908;2023-06-14T10:28:17;29.68;49.34
71039;SHT30;58692;43.212;27.908;2023-06-14T10:31:03;28.90;52.28
71039;SHT30;58692;43.212;27.908;2023-06-14T10:33:39;28.70;52.23
71039;SHT30;58692;43.212;27.908;2023-06-14T10:39:04;27.42;54.95
71039;SHT30;58692;43.212;27.908;2023-06-14T10:41:31;27.19;56.48
71039;SHT30;58692;43.212;27.908;2023-06-14T10:46:39;26.79;57.58
71039;SHT30;58692;43.212;27.908;2023-06-14T10:49:05;26.89;57.37
71039;SHT30;58692;43.212;27.908;2023-06-14T10:51:40;26.92;56.63
71039;SHT30;58692;43.212;27.908;2023-06-14T10:54:12;26.67;57.32
71039;SHT30;58692;43.212;27.908;2023-06-14T10:56:46;26.62;57.31
71039;SHT30;58692;43.212;27.908;2023-06-14T10:59:12;26.91;56.73
71039;SHT30;58692;43.212;27.908;2023-06-14T11:04:46;26.62;56.80
71039;SHT30;58692;43.212;27.908;2023-06-14T11:12:20;26.76;57.83
71039;SHT30;58692;43.212;27.908;2023-06-14T11:15:05;27.51;56.94
71039;SHT30;58692;43.212;27.908;2023-06-14T11:17:34;27.50;56.12
71039;SHT30;58692;43.212;27.908;2023-06-14T11:20:18;27.02;56.77
71039;SHT30;58692;43.212;27.908;2023-06-14T11:22:48;26.41;59.11
71039;SHT30;58692;43.212;27.908;2023-06-14T11:25:14;26.35;60.88
71039;SHT30;58692;43.212;27.908;2023-06-14T11:27:42;26.51;59.82
71039;SHT30;58692;43.212;27.908;2023-06-14T11:30:09;26.45;60.31
71039;SHT30;58692;43.212;27.908;2023-06-14T11:32:36;26.32;60.66
71039;SHT30;58692;43.212;27.908;2023-06-14T11:35:02;26.08;61.54
71039;SHT30;58692;43.212;27.908;2023-06-14T11:37:30;26.11;61.81
71039;SHT30;58692;43.212;27.908;2023-06-14T11:39:57;26.13;62.69
71039;SHT30;58692;43.212;27.908;2023-06-14T11:42:26;26.14;62.42
71039;SHT30;58692;43.212;27.908;2023-06-14T11:44:53;26.31;61.61
71039;SHT30;58692;43.212;27.908;2023-06-14T11:47:19;26.18;62.66
71039;SHT30;58692;43.212;27.908;2023-06-14T11:49:46;26.25;62.89
71039;SHT30;58692;43.212;27.908;2023-06-14T11:52:11;26.08;62.85
71039;SHT30;58692;43.212;27.908;2023-06-14T11:54:47;26.02;63.44
71039;SHT30;58692;43.212;27.908;2023-06-14T11:57:35;26.13;63.76
71039;SHT30;58692;43.212;27.908;2023-06-14T12:00:06;26.18;63.73
71039;SHT30;58692;43.212;27.908;2023-06-14T12:02:38;26.01;64.61
71039;SHT30;58692;43.212;27.908;2023-06-14T12:05:06;25.91;64.74
71039;SHT30;58692;43.212;27.908;2023-06-14T12:07:36;26.08;63.69
71039;SHT30;58692;43.212;27.908;2023-06-14T12:10:05;25.76;63.42
71039;SHT30;58692;43.212;27.908;2023-06-14T12:12:35;25.47;64.02
71039;SHT30;58692;43.212;27.908;2023-06-14T12:15:03;25.56;64.49
71039;SHT30;58692;43.212;27.908;2023-06-14T12:17:35;25.76;64.26
71039;SHT30;58692;43.212;27.908;2023-06-14T12:20:11;26.00;63.88
71039;SHT30;58692;43.212;27.908;2023-06-14T12:22:46;26.02;63.90
71039;SHT30;58692;43.212;27.908;2023-06-14T12:25:26;25.79;67.81
71039;SHT30;58692;43.212;27.908;2023-06-14T12:27:54;25.11;72.69
71039;SHT30;58692;43.212;27.908;2023-06-14T12:30:20;25.25;73.02
71039;SHT30;58692;43.212;27.908;2023-06-14T12:32:46;25.49;72.65
71039;SHT30;58692;43.212;27.908;2023-06-14T12:35:11;25.50;72.42
71039;SHT30;58692;43.212;27.908;2023-06-14T12:37:37;25.14;73.33
71039;SHT30;58692;43.212;27.908;2023-06-14T12:40:03;24.71;74.50
71039;SHT30;58692;43.212;27.908;2023-06-14T12:42:31;24.50;75.46
71039;SHT30;58692;43.212;27.908;2023-06-14T12:44:57;24.61;74.78
71039;SHT30;58692;43.212;27.908;2023-06-14T12:47:22;24.68;74.63
71039;SHT30;58692;43.212;27.908;2023-06-14T12:49:48;24.57;74.70
71039;SHT30;58692;43.212;27.908;2023-06-14T12:52:13;24.48;75.19
71039;SHT30;58692;43.212;27.908;2023-06-14T12:54:39;24.34;75.26
71039;SHT30;58692;43.212;27.908;2023-06-14T12:57:08;24.17;75.88
71039;SHT30;58692;43.212;27.908;2023-06-14T12:59:35;24.03;76.70
71039;SHT30;58692;43.212;27.908;2023-06-14T13:02:17;23.94;76.65
71039;SHT30;58692;43.212;27.908;2023-06-14T13:04:43;23.77;77.58
71039;SHT30;58692;43.212;27.908;2023-06-14T13:07:08;23.70;77.87
71039;SHT30;58692;43.212;27.908;2023-06-14T13:09:36;23.74;77.80
71039;SHT30;58692;43.212;27.908;2023-06-14T13:12:02;24.10;77.06
71039;SHT30;58692;43.212;27.908;2023-06-14T13:14:27;23.87;77.34
71039;SHT30;58692;43.212;27.908;2023-06-14T13:16:55;23.84;77.77
71039;SHT30;58692;43.212;27.908;2023-06-14T13:19:21;23.80;77.37
71039;SHT30;58692;43.212;27.908;2023-06-14T13:21:48;23.63;77.26
71039;SHT30;58692;43.212;27.908;2023-06-14T13:24:13;23.70;76.11
71039;SHT30;58692;43.212;27.908;2023-06-14T13:26:39;23.69;75.57
71039;SHT30;58692;43.212;27.908;2023-06-14T13:29:05;23.60;76.49
71039;SHT30;58692;43.212;27.908;2023-06-14T13:31:31;23.79;76.38
71039;SHT30;58692;43.212;27.908;2023-06-14T13:33:56;24.12;75.36
71039;SHT30;58692;43.212;27.908;2023-06-14T13:36:22;24.18;75.12
71039;SHT30;58692;43.212;27.908;2023-06-14T13:38:47;24.17;74.67
71039;SHT30;58692;43.212;27.908;2023-06-14T13:41:13;24.13;74.31
71039;SHT30;58692;43.212;27.908;2023-06-14T13:43:39;23.87;74.01
71039;SHT30;58692;43.212;27.908;2023-06-14T13:46:05;23.76;73.94
71039;SHT30;58692;43.212;27.908;2023-06-14T13:48:31;23.62;75.64
71039;SHT30;58692;43.212;27.908;2023-06-14T13:50:59;23.41;77.19
71039;SHT30;58692;43.212;27.908;2023-06-14T13:53:25;23.42;77.87
71039;SHT30;58692;43.212;27.908;2023-06-14T13:55:51;23.55;77.44
71039;SHT30;58692;43.212;27.908;2023-06-14T13:58:17;23.58;78.21
71039;SHT30;58692;43.212;27.908;2023-06-14T14:00:43;23.37;77.94
71039;SHT30;58692;43.212;27.908;2023-06-14T14:03:09;23.37;78.36
71039;SHT30;58692;43.212;27.908;2023-06-14T14:05:35;23.39;76.66
71039;SHT30;58692;43.212;27.908;2023-06-14T14:08:04;23.23;77.78
71039;SHT30;58692;43.212;27.908;2023-06-14T14:10:29;23.31;77.34
71039;SHT30;58692;43.212;27.908;2023-06-14T14:12:55;23.21;78.15
71039;SHT30;58692;43.212;27.908;2023-06-14T14:15:21;23.08;78.90
71039;SHT30;58692;43.212;27.908;2023-06-14T14:17:47;23.14;78.62
71039;SHT30;58692;43.212;27.908;2023-06-14T14:20:13;23.05;78.79
71039;SHT30;58692;43.212;27.908;2023-06-14T14:22:41;22.98;79.08
71039;SHT30;58692;43.212;27.908;2023-06-14T14:25:08;22.92;79.25
71039;SHT30;58692;43.212;27.908;2023-06-14T14:27:34;23.09;78.28
71039;SHT30;58692;43.212;27.908;2023-06-14T14:29:59;23.08;79.31
71039;SHT30;58692;43.212;27.908;2023-06-14T14:32:25;23.15;79.83
71039;SHT30;58692;43.212;27.908;2023-06-14T14:34:51;23.14;80.11
71039;SHT30;58692;43.212;27.908;2023-06-14T14:37:16;23.12;80.07
71039;SHT30;58692;43.212;27.908;2023-06-14T14:39:44;23.19;79.59
71039;SHT30;58692;43.212;27.908;2023-06-14T14:42:10;23.18;79.82
71039;SHT30;58692;43.212;27.908;2023-06-14T14:44:37;23.05;80.46
71039;SHT30;58692;43.212;27.908;2023-06-14T14:47:03;23.09;80.46
71039;SHT30;58692;43.212;27.908;2023-06-14T14:49:30;23.19;80.10
71039;SHT30;58692;43.212;27.908;2023-06-14T14:51:56;22.91;81.10
71039;SHT30;58692;43.212;27.908;2023-06-14T14:54:21;23.02;80.15
71039;SHT30;58692;43.212;27.908;2023-06-14T14:56:48;22.67;81.12
71039;SHT30;58692;43.212;27.908;2023-06-14T14:59:14;22.65;81.93
71039;SHT30;58692;43.212;27.908;2023-06-14T15:01:40;22.99;80.86
71039;SHT30;58692;43.212;27.908;2023-06-14T15:04:06;23.02;80.55
71039;SHT30;58692;43.212;27.908;2023-06-14T15:06:32;23.08;80.38
71039;SHT30;58692;43.212;27.908;2023-06-14T15:09:00;22.81;80.74
71039;SHT30;58692;43.212;27.908;2023-06-14T15:11:26;22.74;80.91
71039;SHT30;58692;43.212;27.908;2023-06-14T15:13:52;22.80;80.99
71039;SHT30;58692;43.212;27.908;2023-06-14T15:16:18;22.65;81.52
71039;SHT30;58692;43.212;27.908;2023-06-14T15:18:43;22.72;81.60
71039;SHT30;58692;43.212;27.908;2023-06-14T15:21:09;22.74;81.69
71039;SHT30;58692;43.212;27.908;2023-06-14T15:23:34;22.74;81.60
71039;SHT30;58692;43.212;27.908;2023-06-14T15:26:00;22.95;80.93
71039;SHT30;58692;43.212;27.908;2023-06-14T15:28:26;23.04;80.73
71039;SHT30;58692;43.212;27.908;2023-06-14T15:30:57;22.95;80.58
71039;SHT30;58692;43.212;27.908;2023-06-14T15:33:22;23.02;80.52
71039;SHT30;58692;43.212;27.908;2023-06-14T15:35:57;23.15;80.19